Latest Weather Observations for Kingfish B

IDV60801

Issued at 12:32 pm EDT Wednesday 29 January 2020 (issued every 10 minutes, with the page automatically refreshed every 10 minutes)

About weather observations | Map of weather stations | Latest weather observations for VIC | Other Formats
Station Details ID: 400139 Name: KINGFISH B (PLATFORM) Lat: -38.60 Lon: 148.19 Height: 31.4 m
Data from the previous 72 hours. | See also: Recent months for locations in Victoria
Date/Time
EDT
Temp
°C
App
Temp
°C
Dew
Point
°C
Rel
Hum
%
Delta-T
°C
Wind Press
QNH
hPa
Press
MSL
hPa
Rain since
9am
mm
Dir  Spd
km/h
Gust
km/h
Spd
kts
Gust
kts
29/11:30am 21.4 20.1 14.7 65 3.9 WSW 15 19 8 10 1017.5 - -
29/11:20am 21.6 19.9 14.7 65 4.1 WSW 17 20 9 11 1017.5 - -
29/10:50am 22.2 20.6 15.1 64 4.2 SW 17 19 9 10 1017.7 - -
29/10:20am 21.9 19.8 15.3 66 3.9 SW 20 22 11 12 1017.6 - -
29/10:00am 22.0 20.0 15.4 66 3.9 SW 20 24 11 13 1017.3 - -
29/09:40am 21.9 19.8 15.2 65 4.0 WSW 20 22 11 12 1017.0 - -
29/09:30am 21.8 20.2 15.1 65 4.0 WSW 17 19 9 10 1017.0 - -
29/09:10am 21.5 19.6 15.3 68 3.7 WSW 19 20 10 11 1016.6 - -
29/09:00am 20.8 19.0 15.5 71 3.2 WSW 19 20 10 11 1016.3 - -
29/08:50am 19.5 18.0 15.3 76 2.5 WSW 17 19 9 10 1016.3 - -
29/08:00am 17.5 14.6 14.1 80 1.9 WSW 22 28 12 15 1016.1 - -
29/07:40am 17.2 14.7 14.0 81 1.8 WSW 20 24 11 13 1015.9 - -
29/07:00am 17.1 14.2 14.1 82 1.7 WSW 22 26 12 14 1015.6 - -
29/06:50am 17.1 14.3 14.3 83 1.6 WSW 22 26 12 14 1015.6 - -
29/06:40am 17.1 14.3 14.3 83 1.6 WSW 22 28 12 15 1015.5 - -
29/06:20am 17.0 14.6 14.3 84 1.5 WSW 20 22 11 12 1015.4 - -
29/05:40am 17.0 14.2 14.2 83 1.6 WSW 22 24 12 13 1015.4 - -
29/05:10am 17.1 14.7 14.3 83 1.6 WSW 20 26 11 14 1015.5 - -
29/05:00am 17.0 14.7 14.2 83 1.6 WSW 19 22 10 12 1015.6 - -
29/04:50am 17.1 14.6 14.2 83 1.7 WSW 20 24 11 13 1015.6 - -
29/04:20am 17.0 14.2 14.2 83 1.6 W 22 24 12 13 1015.7 - -
29/03:10am 16.9 14.6 14.1 83 1.6 WSW 19 22 10 12 1015.5 - -
29/01:20am 17.0 14.7 14.1 83 1.7 WSW 19 22 10 12 1016.0 - -
 
Date/Time
EDT
Temp
°C
App
Temp
°C
Dew
Point
°C
Rel
Hum
%
Delta-T
°C
Wind Press
QNH
hPa
Press
MSL
hPa
Rain since
9am
mm
Dir  Spd
km/h
Gust
km/h
Spd
kts
Gust
kts
28/10:20pm 17.4 12.9 13.9 80 2.0 SSW 30 33 16 18 1015.8 - -
28/10:10pm 17.4 13.3 13.8 79 2.0 SSW 28 32 15 17 1015.6 - -
28/09:40pm 17.5 12.9 13.5 77 2.3 SSW 30 35 16 19 1015.4 - -
28/09:10pm 17.6 12.3 13.2 75 2.5 SSW 33 37 18 20 1015.4 - -
28/09:00pm 17.6 12.3 13.1 75 2.5 SSW 33 37 18 20 1015.2 - -
28/08:50pm 17.6 12.9 13.2 75 2.5 SSW 30 35 16 19 1014.9 - -
28/08:40pm 17.6 13.7 13.2 75 2.5 SSW 26 32 14 17 1014.7 - -
28/08:30pm 17.7 13.7 13.1 74 2.6 SSW 26 32 14 17 1014.6 - -
28/08:10pm 17.7 13.3 12.9 73 2.7 SSW 28 33 15 18 1014.5 - -
28/07:50pm 17.7 12.5 12.8 73 2.7 SSW 32 37 17 20 1014.3 - -
28/07:40pm 17.7 12.5 12.7 72 2.8 SSW 32 35 17 19 1014.3 - -
28/07:30pm 17.7 12.3 12.7 72 2.8 SSW 33 35 18 19 1014.2 - -
28/07:20pm 17.8 12.4 12.8 72 2.8 SSW 33 39 18 21 1014.2 - -
28/07:10pm 17.8 12.1 13.0 73 2.7 SSW 35 39 19 21 1014.3 - -
28/07:00pm 17.8 12.1 13.1 74 2.6 SSW 35 39 19 21 1014.3 - -
28/06:50pm 17.7 12.4 13.0 74 2.6 SSW 33 37 18 20 1014.2 - -
28/06:40pm 17.6 12.5 13.0 74 2.6 SSW 32 35 17 19 1014.2 - -
28/06:30pm 17.7 13.0 13.1 74 2.6 SSW 30 35 16 19 1014.2 - -
28/06:20pm 17.7 12.9 13.0 74 2.6 SSW 30 35 16 19 1014.3 - -
28/06:10pm 17.7 12.3 12.9 73 2.7 SSW 33 35 18 19 1014.4 - -
28/06:00pm 17.8 13.0 13.0 73 2.7 SSW 30 33 16 18 1014.4 - -
28/05:50pm 17.9 13.6 13.1 73 2.7 SSW 28 35 15 19 1014.3 - -
28/05:40pm 18.0 13.7 13.1 73 2.8 SSW 28 32 15 17 1014.3 - -
28/05:30pm 17.9 13.9 13.0 73 2.8 SSW 26 30 14 16 1014.3 - -
28/05:20pm 18.3 14.3 13.1 71 2.9 SSW 26 30 14 16 1014.3 - -
28/05:10pm 18.3 14.3 13.1 71 2.9 SW 26 30 14 16 1014.3 - -
28/05:00pm 18.3 14.7 13.0 71 3.0 SSW 24 30 13 16 1014.5 - -
28/04:40pm 19.0 16.3 13.4 70 3.2 SW 20 22 11 12 1014.4 - -
28/04:20pm 19.2 16.6 13.3 68 3.4 SW 19 22 10 12 1014.3 - -
28/04:10pm 19.1 16.6 13.4 69 3.2 SW 19 22 10 12 1014.2 - -
28/04:00pm 19.1 16.5 13.3 69 3.3 SW 19 20 10 11 1014.3 - -
28/03:40pm 19.4 16.2 13.2 67 3.5 SW 22 24 12 13 1014.5 - -
28/03:10pm 19.6 16.7 12.9 65 3.8 SW 20 22 11 12 1014.5 - -
28/03:00pm 19.8 17.0 13.1 65 3.8 SW 20 24 11 13 1014.7 - -
28/01:50pm 20.9 19.5 14.4 66 3.8 SW 15 19 8 10 1014.7 - -
28/11:40am 21.0 20.2 13.9 64 4.1 WSW 11 15 6 8 1015.0 - -
28/08:40am 17.8 16.3 13.0 73 2.7 SW 13 15 7 8 1014.2 - -
28/04:20am 16.9 14.4 12.2 74 2.6 SSW 17 19 9 10 1013.9 - -
28/02:50am 16.9 16.1 11.7 71 2.8 SSW 7 9 4 5 1015.0 - -
28/02:40am 16.9 16.1 11.6 71 2.9 SSW 7 11 4 6 1015.2 - -
28/02:10am 17.0 16.1 11.5 70 3.0 SSW 7 11 4 6 1015.4 - -
28/01:40am 16.9 16.0 11.2 69 3.1 SSW 7 9 4 5 1015.5 - -
28/01:30am 16.9 16.1 11.1 68 3.1 SSW 6 7 3 4 1015.6 - -
28/01:20am 16.8 16.7 10.9 68 3.2 SSW 2 4 1 2 1015.6 - -
28/01:10am 16.8 17.1 10.8 67 3.2 CALM 0 2 0 1 1015.6 - -
28/12:50am 16.9 17.2 10.8 67 3.3 CALM 0 0 0 0 1015.9 - -
28/12:40am 16.9 17.2 10.9 67 3.2 CALM 0 2 0 1 1016.0 - -
28/12:30am 17.0 17.3 10.9 67 3.3 CALM 0 0 0 0 1016.0 - -
28/12:20am 17.0 17.3 10.8 67 3.3 CALM 0 0 0 0 1015.8 - -
28/12:10am 17.0 17.3 10.9 67 3.3 CALM 0 2 0 1 1015.9 - -
 
Date/Time
EDT
Temp
°C
App
Temp
°C
Dew
Point
°C
Rel
Hum
%
Delta-T
°C
Wind Press
QNH
hPa
Press
MSL
hPa
Rain since
9am
mm
Dir  Spd
km/h
Gust
km/h
Spd
kts
Gust
kts
27/11:30pm 16.9 17.1 10.7 67 3.3 CALM 0 2 0 1 1016.2 - -
27/10:40pm 16.9 16.7 10.5 66 3.4 SSW 2 4 1 2 1016.3 - -
27/10:30pm 16.8 17.0 10.5 66 3.4 CALM 0 2 0 1 1016.0 - -
27/10:20pm 16.8 16.2 10.5 66 3.4 S 4 4 2 2 1015.9 - -
27/10:10pm 16.9 16.3 10.5 66 3.4 SSW 4 7 2 4 1016.0 - -
27/09:50pm 16.9 15.8 10.8 67 3.3 SSW 7 11 4 6 1016.0 - -
27/09:40pm 16.9 15.5 10.8 67 3.3 SSW 9 11 5 6 1016.0 - -
27/09:30pm 16.9 15.8 10.8 67 3.3 S 7 11 4 6 1015.7 - -
27/09:00pm 16.9 15.6 11.2 69 3.1 S 9 11 5 6 1015.8 - -
27/08:40pm 17.0 16.3 11.3 69 3.1 S 6 9 3 5 1015.7 - -
27/08:30pm 17.0 15.7 11.2 68 3.1 S 9 11 5 6 1015.5 - -
27/07:50pm 17.1 15.8 11.4 69 3.1 S 9 13 5 7 1015.1 - -
27/07:40pm 17.2 15.9 11.4 68 3.1 S 9 11 5 6 1015.2 - -
27/07:30pm 17.2 16.3 11.3 68 3.2 S 7 11 4 6 1015.0 - -
27/07:20pm 17.2 15.9 11.3 68 3.2 S 9 11 5 6 1015.0 - -
27/07:10pm 17.2 16.5 11.5 69 3.1 S 6 7 3 4 1014.8 - -
27/07:00pm 17.3 17.4 11.4 68 3.2 SSE 2 6 1 3 1014.6 - -
27/06:50pm 17.3 17.0 11.3 68 3.3 S 4 7 2 4 1014.7 - -
27/06:40pm 17.3 17.0 11.3 68 3.3 S 4 7 2 4 1014.6 - -
27/05:50pm 17.3 17.0 11.5 68 3.2 SSE 4 7 2 4 1014.9 - -
27/05:10pm 17.1 15.2 11.8 71 2.9 S 13 17 7 9 1014.8 - -
27/05:00pm 17.1 14.8 11.9 71 2.8 S 15 19 8 10 1015.0 - -
27/04:30pm 17.2 14.5 11.8 70 3.0 S 17 20 9 11 1015.0 - -
27/04:10pm 17.5 15.6 11.8 69 3.1 S 13 17 7 9 1015.1 - -
27/03:10pm 17.4 16.6 13.0 75 2.5 S 9 13 5 7 1014.9 - -
27/02:00pm 17.5 15.8 13.5 77 2.3 S 15 17 8 9 1015.4 - -
27/11:50am 18.4 17.3 13.0 71 3.0 SSW 11 13 6 7 1015.6 - -
27/11:40am 19.0 18.6 13.0 68 3.4 SSW 7 11 4 6 1015.6 - -
27/11:30am 19.5 19.3 13.0 66 3.7 SSW 6 9 3 5 1015.5 - -
27/11:10am 19.8 20.7 13.0 65 3.9 CALM 0 2 0 1 1015.1 - -
27/11:00am 20.0 21.0 13.2 65 3.9 CALM 0 2 0 1 1015.1 - -
27/10:50am 20.1 21.0 12.9 63 4.1 CALM 0 2 0 1 1015.3 - -
27/10:30am 22.4 23.0 13.2 56 5.3 SW 2 4 1 2 1015.5 - -
27/10:20am 23.2 24.0 13.6 54 5.6 SW 2 2 1 1 1015.4 - -
27/10:00am 22.8 23.6 13.8 57 5.2 WNW 2 2 1 1 1015.0 - -
27/09:40am 21.5 22.2 13.4 60 4.7 NW 2 4 1 2 1014.9 - -
27/09:30am 22.6 23.3 13.4 56 5.3 NNW 2 6 1 3 1015.0 - -
27/09:20am 24.4 25.5 14.6 54 5.8 NW 2 4 1 2 1015.0 - -
27/08:40am 21.3 22.0 14.5 65 4.0 NW 4 6 2 3 1014.7 - -
27/08:30am 20.8 21.5 14.4 67 3.7 N 4 9 2 5 1014.5 - -
27/08:20am 19.7 19.9 14.3 71 3.1 NNW 6 7 3 4 1014.5 - -
27/05:00am 17.2 16.2 12.4 73 2.7 SW 9 11 5 6 1014.5 - -
27/04:50am 17.2 15.9 12.4 73 2.7 SW 11 15 6 8 1014.7 - -
27/04:40am 17.2 15.5 12.3 73 2.7 WSW 13 15 7 8 1014.8 - -
27/04:10am 17.2 15.4 12.1 72 2.8 WSW 13 15 7 8 1014.8 - -
27/04:00am 17.2 15.8 12.1 72 2.8 WSW 11 15 6 8 1014.8 - -
27/03:50am 17.2 15.7 12.0 71 2.9 WSW 11 15 6 8 1014.9 - -
27/03:40am 17.2 15.4 12.0 71 2.9 WSW 13 15 7 8 1015.0 - -
27/03:30am 17.2 15.0 12.0 71 2.9 WSW 15 17 8 9 1015.2 - -
27/03:20am 17.2 15.3 11.8 70 3.0 WSW 13 15 7 8 1015.1 - -
27/03:10am 17.1 15.6 11.8 71 2.9 WSW 11 15 6 8 1015.0 - -
27/03:00am 17.2 15.7 11.9 71 2.9 WSW 11 15 6 8 1015.3 - -
27/02:50am 17.1 14.8 11.8 71 2.9 WSW 15 19 8 10 1015.5 - -
27/02:40am 17.2 15.3 11.8 70 3.0 WSW 13 17 7 9 1015.5 - -
27/02:20am 17.1 14.4 11.7 70 2.9 SW 17 20 9 11 1015.9 - -
27/02:10am 17.1 14.4 11.7 70 2.9 SW 17 20 9 11 1015.9 - -
27/02:00am 17.0 14.3 11.7 71 2.9 SW 17 20 9 11 1016.0 - -
27/01:50am 17.1 14.8 11.7 70 2.9 WSW 15 19 8 10 1016.3 - -
27/01:40am 17.1 15.5 11.7 70 2.9 WSW 11 19 6 10 1016.2 - -
27/01:30am 17.1 15.9 11.6 70 3.0 WSW 9 13 5 7 1016.1 - -
27/01:20am 17.1 15.5 11.6 70 3.0 WSW 11 13 6 7 1016.0 - -
27/01:00am 17.2 15.7 11.9 71 2.9 WSW 11 17 6 9 1016.1 - -
27/12:50am 17.3 15.1 12.0 71 2.9 SW 15 19 8 10 1016.5 - -
27/12:40am 17.2 14.9 11.9 71 2.9 WSW 15 22 8 12 1016.7 - -
27/12:30am 17.1 15.2 11.8 71 2.9 SW 13 15 7 8 1016.6 - -
27/12:20am 17.2 14.6 12.0 71 2.9 SW 17 20 9 11 1016.4 - -
27/12:00am 17.3 14.4 12.2 72 2.8 SW 19 20 10 11 1016.5 - -
 
Date/Time
EDT
Temp
°C
App
Temp
°C
Dew
Point
°C
Rel
Hum
%
Delta-T
°C
Wind Press
QNH
hPa
Press
MSL
hPa
Rain since
9am
mm
Dir  Spd
km/h
Gust
km/h
Spd
kts
Gust
kts
26/11:50pm 17.2 14.1 12.3 73 2.7 SW 20 26 11 14 1016.7 - -
26/11:40pm 17.2 13.8 12.6 74 2.6 SW 22 26 12 14 1016.7 - -
26/11:30pm 17.1 13.7 12.6 75 2.5 SSW 22 26 12 14 1016.5 - -
26/11:20pm 17.1 13.5 12.9 76 2.3 SSW 24 28 13 15 1016.5 - -
26/11:10pm 17.1 13.5 13.2 78 2.2 SSW 24 32 13 17 1016.4 - -
26/10:50pm 17.2 13.4 13.6 79 2.0 SSW 26 32 14 17 1016.1 - -
26/10:10pm 17.3 14.2 13.4 78 2.2 SW 22 26 12 14 1015.7 - -
26/10:00pm 17.4 14.3 13.4 77 2.3 SSW 22 26 12 14 1015.4 - -
26/09:30pm 17.7 14.6 13.3 75 2.5 SW 22 28 12 15 1014.9 - -
26/09:20pm 17.8 14.6 13.2 74 2.6 SW 22 24 12 13 1014.9 - -
26/08:50pm 18.0 14.1 13.2 73 2.7 SW 26 32 14 17 1014.4 - -
26/08:40pm 18.0 14.5 13.4 74 2.6 SW 24 30 13 16 1014.3 - -
26/07:30pm 17.7 12.1 13.3 75 2.5 SSW 35 39 19 21 1013.8 - -
26/06:50pm 17.9 12.7 13.3 74 2.6 SSW 33 37 18 20 1013.6 - -
26/06:10pm 18.0 10.9 13.5 75 2.6 SSW 43 50 23 27 1013.7 - -
26/05:40pm 17.9 13.1 14.5 80 2.0 SSW 33 44 18 24 1013.5 - -
26/05:30pm 18.1 11.9 14.8 81 1.9 SSW 41 48 22 26 1013.7 - -
26/05:00pm 19.2 13.9 16.2 83 1.8 SW 39 46 21 25 1013.3 - -
26/04:10pm 18.3 12.7 15.4 83 1.7 SSW 39 43 21 23 1013.1 - -
26/04:00pm 18.3 12.6 15.2 82 1.8 SSW 39 46 21 25 1013.1 - -
26/03:50pm 18.3 12.1 15.0 81 1.9 SSW 41 48 22 26 1013.2 - -
26/03:40pm 18.4 12.2 14.9 80 2.0 SSW 41 46 22 25 1013.3 - -
26/03:30pm 18.5 13.0 14.6 78 2.3 SSW 37 43 20 23 1013.1 - -
26/03:20pm 18.7 13.5 14.4 76 2.5 SSW 35 41 19 22 1013.0 - -
26/03:10pm 18.9 14.0 14.3 74 2.7 SSW 33 37 18 20 1012.8 - -
26/03:00pm 19.2 14.5 14.2 73 2.9 SSW 32 35 17 19 1012.7 - -
26/02:50pm 19.7 15.3 14.2 70 3.2 SSW 30 33 16 18 1012.6 - -
26/02:40pm 20.3 17.1 14.2 68 3.5 SW 24 28 13 15 1012.3 - -
26/02:30pm 21.0 18.3 14.6 67 3.8 SW 22 26 12 14 1012.3 - -
26/02:20pm 21.5 18.7 14.4 64 4.2 SW 22 24 12 13 1012.3 - -
26/02:10pm 21.3 19.0 14.6 65 3.9 SW 20 22 11 12 1012.2 - -
26/02:00pm 21.7 19.5 14.4 63 4.3 SW 19 20 10 11 1012.1 - -
26/01:50pm 22.7 21.0 14.6 60 4.8 SW 17 19 9 10 1012.0 - -
26/01:40pm 22.8 21.1 14.7 60 4.8 SW 17 19 9 10 1012.0 - -
26/01:30pm 22.9 21.3 14.9 60 4.8 SW 17 19 9 10 1012.0 - -
26/01:20pm 23.0 21.8 15.0 60 4.8 SW 15 17 8 9 1012.1 - -
26/01:10pm 23.2 22.0 15.1 60 4.8 SW 15 19 8 10 1012.2 - -
26/01:00pm 23.3 22.5 15.2 60 4.8 SW 13 17 7 9 1012.1 - -
26/12:50pm 23.3 22.9 15.2 60 4.8 WSW 11 13 6 7 1012.1 - -
26/12:40pm 22.9 22.9 15.2 62 4.6 WSW 9 13 5 7 1012.1 - -

Other formats

Comma delimited format used in spreadsheet applications
http://www.bom.gov.au/fwo/IDV60801/IDV60801.55039.axf

JavaScript Object Notation format (JSON) in row-major order
http://www.bom.gov.au/fwo/IDV60801/IDV60801.55039.json

Data quality

Most of these data are generated automatically and are frequently updated. Quality checks on data are not normally performed. It is possible for incorrect values to appear. Refer to information at About Latest Weather Observations and please check the disclaimer before using these data.